sensor_id;sensor_type;location;lat;lon;timestamp;P1;durP1;ratioP1;P2;durP2;ratioP2
22363;SDS011;11349;53.412;-1.328;2023-03-05T00:00:13;10.95;;;5.47;;
22363;SDS011;11349;53.412;-1.328;2023-03-05T00:02:40;13.18;;;6.30;;
22363;SDS011;11349;53.412;-1.328;2023-03-05T00:05:06;13.25;;;5.80;;
22363;SDS011;11349;53.412;-1.328;2023-03-05T00:07:33;11.27;;;6.47;;
22363;SDS011;11349;53.412;-1.328;2023-03-05T00:09:59;10.05;;;5.82;;
22363;SDS011;11349;53.412;-1.328;2023-03-05T00:12:25;11.07;;;6.72;;
22363;SDS011;11349;53.412;-1.328;2023-03-05T00:14:51;10.10;;;6.05;;
22363;SDS011;11349;53.412;-1.328;2023-03-05T00:17:17;13.88;;;6.90;;
22363;SDS011;11349;53.412;-1.328;2023-03-05T00:19:42;12.45;;;6.72;;
22363;SDS011;11349;53.412;-1.328;2023-03-05T00:22:08;10.48;;;6.40;;
22363;SDS011;11349;53.412;-1.328;2023-03-05T00:24:34;12.05;;;6.03;;
22363;SDS011;11349;53.412;-1.328;2023-03-05T00:27:00;10.95;;;7.45;;
22363;SDS011;11349;53.412;-1.328;2023-03-05T00:29:26;12.45;;;6.88;;
22363;SDS011;11349;53.412;-1.328;2023-03-05T00:31:52;12.45;;;6.60;;
22363;SDS011;11349;53.412;-1.328;2023-03-05T00:34:18;11.18;;;6.78;;
22363;SDS011;11349;53.412;-1.328;2023-03-05T00:36:45;15.35;;;7.97;;
22363;SDS011;11349;53.412;-1.328;2023-03-05T00:39:14;11.32;;;6.72;;
22363;SDS011;11349;53.412;-1.328;2023-03-05T00:41:41;14.93;;;7.13;;
22363;SDS011;11349;53.412;-1.328;2023-03-05T00:44:07;11.05;;;6.18;;
22363;SDS011;11349;53.412;-1.328;2023-03-05T00:46:33;10.05;;;6.28;;
22363;SDS011;11349;53.412;-1.328;2023-03-05T00:48:59;10.60;;;6.43;;
22363;SDS011;11349;53.412;-1.328;2023-03-05T00:51:25;10.25;;;5.97;;
22363;SDS011;11349;53.412;-1.328;2023-03-05T00:53:51;11.27;;;5.63;;
22363;SDS011;11349;53.412;-1.328;2023-03-05T00:56:17;12.75;;;5.47;;
22363;SDS011;11349;53.412;-1.328;2023-03-05T00:58:43;10.05;;;5.38;;
22363;SDS011;11349;53.412;-1.328;2023-03-05T01:01:09;12.82;;;6.13;;
22363;SDS011;11349;53.412;-1.328;2023-03-05T01:03:34;10.80;;;5.90;;
22363;SDS011;11349;53.412;-1.328;2023-03-05T01:06:03;12.35;;;7.30;;
22363;SDS011;11349;53.412;-1.328;2023-03-05T01:08:30;10.43;;;5.95;;
22363;SDS011;11349;53.412;-1.328;2023-03-05T01:10:56;8.80;;;5.82;;
22363;SDS011;11349;53.412;-1.328;2023-03-05T01:13:22;12.30;;;6.10;;
22363;SDS011;11349;53.412;-1.328;2023-03-05T01:15:48;11.05;;;6.22;;
22363;SDS011;11349;53.412;-1.328;2023-03-05T01:18:15;18.40;;;7.50;;
22363;SDS011;11349;53.412;-1.328;2023-03-05T01:20:42;12.75;;;6.63;;
22363;SDS011;11349;53.412;-1.328;2023-03-05T01:23:08;11.65;;;6.82;;
22363;SDS011;11349;53.412;-1.328;2023-03-05T01:25:33;13.90;;;8.00;;
22363;SDS011;11349;53.412;-1.328;2023-03-05T01:27:59;14.27;;;7.10;;
22363;SDS011;11349;53.412;-1.328;2023-03-05T01:30:25;13.55;;;7.55;;
22363;SDS011;11349;53.412;-1.328;2023-03-05T01:32:51;10.15;;;6.10;;
22363;SDS011;11349;53.412;-1.328;2023-03-05T01:35:19;10.00;;;6.50;;
22363;SDS011;11349;53.412;-1.328;2023-03-05T01:37:46;13.15;;;6.93;;
22363;SDS011;11349;53.412;-1.328;2023-03-05T01:40:13;10.48;;;6.35;;
22363;SDS011;11349;53.412;-1.328;2023-03-05T01:42:44;10.25;;;6.70;;
22363;SDS011;11349;53.412;-1.328;2023-03-05T01:45:19;11.85;;;7.00;;
22363;SDS011;11349;53.412;-1.328;2023-03-05T01:47:45;14.68;;;7.82;;
22363;SDS011;11349;53.412;-1.328;2023-03-05T01:50:12;14.60;;;7.20;;
22363;SDS011;11349;53.412;-1.328;2023-03-05T01:52:42;14.05;;;7.20;;
22363;SDS011;11349;53.412;-1.328;2023-03-05T01:55:21;13.00;;;8.20;;
22363;SDS011;11349;53.412;-1.328;2023-03-05T01:57:51;12.40;;;7.85;;
22363;SDS011;11349;53.412;-1.328;2023-03-05T02:00:25;15.20;;;8.80;;
22363;SDS011;11349;53.412;-1.328;2023-03-05T02:02:56;12.18;;;7.28;;
22363;SDS011;11349;53.412;-1.328;2023-03-05T02:05:28;15.00;;;7.57;;
22363;SDS011;11349;53.412;-1.328;2023-03-05T02:07:56;11.90;;;7.38;;
22363;SDS011;11349;53.412;-1.328;2023-03-05T02:10:28;12.73;;;7.15;;
22363;SDS011;11349;53.412;-1.328;2023-03-05T02:12:57;14.98;;;7.75;;
22363;SDS011;11349;53.412;-1.328;2023-03-05T02:15:25;13.18;;;7.15;;
22363;SDS011;11349;53.412;-1.328;2023-03-05T02:17:51;12.43;;;7.57;;
22363;SDS011;11349;53.412;-1.328;2023-03-05T02:20:18;14.70;;;7.50;;
22363;SDS011;11349;53.412;-1.328;2023-03-05T02:22:46;14.20;;;7.00;;
22363;SDS011;11349;53.412;-1.328;2023-03-05T02:25:13;14.18;;;7.75;;
22363;SDS011;11349;53.412;-1.328;2023-03-05T02:30:26;11.27;;;7.28;;
22363;SDS011;11349;53.412;-1.328;2023-03-05T02:32:52;12.77;;;7.38;;
22363;SDS011;11349;53.412;-1.328;2023-03-05T02:35:18;12.32;;;7.78;;
22363;SDS011;11349;53.412;-1.328;2023-03-05T02:37:44;12.85;;;7.88;;
22363;SDS011;11349;53.412;-1.328;2023-03-05T02:40:10;9.98;;;7.43;;
22363;SDS011;11349;53.412;-1.328;2023-03-05T02:42:37;9.90;;;6.97;;
22363;SDS011;11349;53.412;-1.328;2023-03-05T02:45:03;9.40;;;6.93;;
22363;SDS011;11349;53.412;-1.328;2023-03-05T02:47:29;13.20;;;7.60;;
22363;SDS011;11349;53.412;-1.328;2023-03-05T02:49:55;11.25;;;7.72;;
22363;SDS011;11349;53.412;-1.328;2023-03-05T02:52:21;13.40;;;7.68;;
22363;SDS011;11349;53.412;-1.328;2023-03-05T02:54:48;13.00;;;8.00;;
22363;SDS011;11349;53.412;-1.328;2023-03-05T02:57:14;14.25;;;7.95;;
22363;SDS011;11349;53.412;-1.328;2023-03-05T02:59:40;12.50;;;8.30;;
22363;SDS011;11349;53.412;-1.328;2023-03-05T03:02:06;14.38;;;7.90;;
22363;SDS011;11349;53.412;-1.328;2023-03-05T03:04:32;13.13;;;7.60;;
22363;SDS011;11349;53.412;-1.328;2023-03-05T03:06:58;12.60;;;7.63;;
22363;SDS011;11349;53.412;-1.328;2023-03-05T03:09:24;13.43;;;8.13;;
22363;SDS011;11349;53.412;-1.328;2023-03-05T03:11:50;11.63;;;7.70;;
22363;SDS011;11349;53.412;-1.328;2023-03-05T03:14:17;11.88;;;7.53;;
22363;SDS011;11349;53.412;-1.328;2023-03-05T03:16:43;11.00;;;7.55;;
22363;SDS011;11349;53.412;-1.328;2023-03-05T03:19:08;13.43;;;7.70;;
22363;SDS011;11349;53.412;-1.328;2023-03-05T03:21:34;12.70;;;7.38;;
22363;SDS011;11349;53.412;-1.328;2023-03-05T03:24:00;11.90;;;7.95;;
22363;SDS011;11349;53.412;-1.328;2023-03-05T03:26:26;16.90;;;8.27;;
22363;SDS011;11349;53.412;-1.328;2023-03-05T03:28:52;12.85;;;7.15;;
22363;SDS011;11349;53.412;-1.328;2023-03-05T03:31:23;11.02;;;7.35;;
22363;SDS011;11349;53.412;-1.328;2023-03-05T03:33:49;12.68;;;8.23;;
22363;SDS011;11349;53.412;-1.328;2023-03-05T03:36:15;16.63;;;7.82;;
22363;SDS011;11349;53.412;-1.328;2023-03-05T03:38:41;13.32;;;6.88;;
22363;SDS011;11349;53.412;-1.328;2023-03-05T03:41:07;11.80;;;7.20;;
22363;SDS011;11349;53.412;-1.328;2023-03-05T03:43:34;12.52;;;7.68;;
22363;SDS011;11349;53.412;-1.328;2023-03-05T03:46:02;13.68;;;7.72;;
22363;SDS011;11349;53.412;-1.328;2023-03-05T03:48:29;11.93;;;8.23;;
22363;SDS011;11349;53.412;-1.328;2023-03-05T03:50:55;14.52;;;8.63;;
22363;SDS011;11349;53.412;-1.328;2023-03-05T03:53:20;14.55;;;7.95;;
22363;SDS011;11349;53.412;-1.328;2023-03-05T03:55:46;14.07;;;8.20;;
22363;SDS011;11349;53.412;-1.328;2023-03-05T03:58:12;11.48;;;7.07;;
22363;SDS011;11349;53.412;-1.328;2023-03-05T04:00:38;11.13;;;6.55;;
22363;SDS011;11349;53.412;-1.328;2023-03-05T04:03:04;12.23;;;6.22;;
22363;SDS011;11349;53.412;-1.328;2023-03-05T04:05:31;11.82;;;6.25;;
22363;SDS011;11349;53.412;-1.328;2023-03-05T04:07:56;10.15;;;6.55;;
22363;SDS011;11349;53.412;-1.328;2023-03-05T04:10:24;9.70;;;6.30;;
22363;SDS011;11349;53.412;-1.328;2023-03-05T04:12:50;9.85;;;5.85;;
22363;SDS011;11349;53.412;-1.328;2023-03-05T04:15:16;13.18;;;6.35;;
22363;SDS011;11349;53.412;-1.328;2023-03-05T04:17:44;9.73;;;6.57;;
22363;SDS011;11349;53.412;-1.328;2023-03-05T04:20:10;12.00;;;6.15;;
22363;SDS011;11349;53.412;-1.328;2023-03-05T04:22:36;12.27;;;6.07;;
22363;SDS011;11349;53.412;-1.328;2023-03-05T04:25:02;10.80;;;5.80;;
22363;SDS011;11349;53.412;-1.328;2023-03-05T04:27:31;10.82;;;6.43;;
22363;SDS011;11349;53.412;-1.328;2023-03-05T04:29:58;12.80;;;6.05;;
22363;SDS011;11349;53.412;-1.328;2023-03-05T04:32:25;11.13;;;5.68;;
22363;SDS011;11349;53.412;-1.328;2023-03-05T04:34:53;10.52;;;5.57;;
22363;SDS011;11349;53.412;-1.328;2023-03-05T04:37:20;10.43;;;5.88;;
22363;SDS011;11349;53.412;-1.328;2023-03-05T04:39:46;9.18;;;5.60;;
22363;SDS011;11349;53.412;-1.328;2023-03-05T04:42:12;9.13;;;5.38;;
22363;SDS011;11349;53.412;-1.328;2023-03-05T04:44:37;12.65;;;5.80;;
22363;SDS011;11349;53.412;-1.328;2023-03-05T04:47:04;11.90;;;5.72;;
22363;SDS011;11349;53.412;-1.328;2023-03-05T04:49:29;11.40;;;5.82;;
22363;SDS011;11349;53.412;-1.328;2023-03-05T04:51:55;10.55;;;6.10;;
22363;SDS011;11349;53.412;-1.328;2023-03-05T04:54:22;8.98;;;5.35;;
22363;SDS011;11349;53.412;-1.328;2023-03-05T04:56:48;11.40;;;5.65;;
22363;SDS011;11349;53.412;-1.328;2023-03-05T04:59:14;10.77;;;4.95;;
22363;SDS011;11349;53.412;-1.328;2023-03-05T05:01:40;12.02;;;5.43;;
22363;SDS011;11349;53.412;-1.328;2023-03-05T05:04:05;13.32;;;5.75;;
22363;SDS011;11349;53.412;-1.328;2023-03-05T05:06:31;10.95;;;5.18;;
22363;SDS011;11349;53.412;-1.328;2023-03-05T05:08:57;14.32;;;5.18;;
22363;SDS011;11349;53.412;-1.328;2023-03-05T05:11:23;11.63;;;5.28;;
22363;SDS011;11349;53.412;-1.328;2023-03-05T05:13:48;10.27;;;5.13;;
22363;SDS011;11349;53.412;-1.328;2023-03-05T05:16:14;9.80;;;5.45;;
22363;SDS011;11349;53.412;-1.328;2023-03-05T05:18:40;9.70;;;5.60;;
22363;SDS011;11349;53.412;-1.328;2023-03-05T05:21:10;9.38;;;5.18;;
22363;SDS011;11349;53.412;-1.328;2023-03-05T05:23:37;8.13;;;5.22;;
22363;SDS011;11349;53.412;-1.328;2023-03-05T05:26:07;10.95;;;6.03;;
22363;SDS011;11349;53.412;-1.328;2023-03-05T05:28:33;9.00;;;5.18;;
22363;SDS011;11349;53.412;-1.328;2023-03-05T05:31:00;13.20;;;5.18;;
22363;SDS011;11349;53.412;-1.328;2023-03-05T05:33:30;13.90;;;5.88;;
22363;SDS011;11349;53.412;-1.328;2023-03-05T05:35:56;12.70;;;5.63;;
22363;SDS011;11349;53.412;-1.328;2023-03-05T05:38:22;8.95;;;6.07;;
22363;SDS011;11349;53.412;-1.328;2023-03-05T05:40:47;10.45;;;5.93;;
22363;SDS011;11349;53.412;-1.328;2023-03-05T05:43:13;10.68;;;5.60;;
22363;SDS011;11349;53.412;-1.328;2023-03-05T05:45:39;12.15;;;5.30;;
22363;SDS011;11349;53.412;-1.328;2023-03-05T05:48:05;11.00;;;5.38;;
22363;SDS011;11349;53.412;-1.328;2023-03-05T05:50:31;10.52;;;5.10;;
22363;SDS011;11349;53.412;-1.328;2023-03-05T05:52:56;11.55;;;5.60;;
22363;SDS011;11349;53.412;-1.328;2023-03-05T05:55:22;8.13;;;4.95;;
22363;SDS011;11349;53.412;-1.328;2023-03-05T05:57:48;7.13;;;4.90;;
22363;SDS011;11349;53.412;-1.328;2023-03-05T06:00:14;9.27;;;5.38;;
22363;SDS011;11349;53.412;-1.328;2023-03-05T06:02:40;8.55;;;4.72;;
22363;SDS011;11349;53.412;-1.328;2023-03-05T06:05:07;7.97;;;4.70;;
22363;SDS011;11349;53.412;-1.328;2023-03-05T06:07:35;11.38;;;4.70;;
22363;SDS011;11349;53.412;-1.328;2023-03-05T06:10:02;7.45;;;4.95;;
22363;SDS011;11349;53.412;-1.328;2023-03-05T06:12:28;9.98;;;5.22;;
22363;SDS011;11349;53.412;-1.328;2023-03-05T06:14:54;8.77;;;4.47;;
22363;SDS011;11349;53.412;-1.328;2023-03-05T06:17:19;7.00;;;3.97;;
22363;SDS011;11349;53.412;-1.328;2023-03-05T06:19:45;13.20;;;4.90;;
22363;SDS011;11349;53.412;-1.328;2023-03-05T06:22:11;11.45;;;4.60;;
22363;SDS011;11349;53.412;-1.328;2023-03-05T06:24:39;8.25;;;4.50;;
22363;SDS011;11349;53.412;-1.328;2023-03-05T06:27:05;11.48;;;4.90;;
22363;SDS011;11349;53.412;-1.328;2023-03-05T06:29:30;10.82;;;5.05;;
22363;SDS011;11349;53.412;-1.328;2023-03-05T06:31:56;7.07;;;4.10;;
22363;SDS011;11349;53.412;-1.328;2023-03-05T06:34:22;8.00;;;4.10;;
22363;SDS011;11349;53.412;-1.328;2023-03-05T06:36:48;8.75;;;3.70;;
22363;SDS011;11349;53.412;-1.328;2023-03-05T06:39:14;7.72;;;3.83;;
22363;SDS011;11349;53.412;-1.328;2023-03-05T06:41:39;9.57;;;4.05;;
22363;SDS011;11349;53.412;-1.328;2023-03-05T06:44:05;10.15;;;4.75;;
22363;SDS011;11349;53.412;-1.328;2023-03-05T06:46:32;6.70;;;3.50;;
22363;SDS011;11349;53.412;-1.328;2023-03-05T06:48:59;6.63;;;3.95;;
22363;SDS011;11349;53.412;-1.328;2023-03-05T06:51:27;7.75;;;3.83;;
22363;SDS011;11349;53.412;-1.328;2023-03-05T06:53:55;8.90;;;4.78;;
22363;SDS011;11349;53.412;-1.328;2023-03-05T06:56:23;6.10;;;4.10;;
22363;SDS011;11349;53.412;-1.328;2023-03-05T06:58:49;8.85;;;3.38;;
22363;SDS011;11349;53.412;-1.328;2023-03-05T07:01:16;8.82;;;3.72;;
22363;SDS011;11349;53.412;-1.328;2023-03-05T07:03:42;11.52;;;4.18;;
22363;SDS011;11349;53.412;-1.328;2023-03-05T07:06:10;8.73;;;3.83;;
22363;SDS011;11349;53.412;-1.328;2023-03-05T07:08:37;9.52;;;3.80;;
22363;SDS011;11349;53.412;-1.328;2023-03-05T07:11:07;7.95;;;3.85;;
22363;SDS011;11349;53.412;-1.328;2023-03-05T07:13:34;6.80;;;3.28;;
22363;SDS011;11349;53.412;-1.328;2023-03-05T07:16:03;9.63;;;3.83;;
22363;SDS011;11349;53.412;-1.328;2023-03-05T07:18:30;9.02;;;3.58;;
22363;SDS011;11349;53.412;-1.328;2023-03-05T07:21:00;6.03;;;3.25;;
22363;SDS011;11349;53.412;-1.328;2023-03-05T07:23:29;5.88;;;3.60;;
22363;SDS011;11349;53.412;-1.328;2023-03-05T07:25:56;7.90;;;3.80;;
22363;SDS011;11349;53.412;-1.328;2023-03-05T07:28:21;7.30;;;4.10;;
22363;SDS011;11349;53.412;-1.328;2023-03-05T07:30:57;7.10;;;3.78;;
22363;SDS011;11349;53.412;-1.328;2023-03-05T07:33:24;6.57;;;4.05;;
22363;SDS011;11349;53.412;-1.328;2023-03-05T07:35:51;7.10;;;3.53;;
22363;SDS011;11349;53.412;-1.328;2023-03-05T07:38:16;8.75;;;4.32;;
22363;SDS011;11349;53.412;-1.328;2023-03-05T07:40:42;8.60;;;4.05;;
22363;SDS011;11349;53.412;-1.328;2023-03-05T07:43:08;7.20;;;4.13;;
22363;SDS011;11349;53.412;-1.328;2023-03-05T07:45:37;7.65;;;4.18;;
22363;SDS011;11349;53.412;-1.328;2023-03-05T07:48:04;9.52;;;4.38;;
22363;SDS011;11349;53.412;-1.328;2023-03-05T07:50:31;7.57;;;4.50;;
22363;SDS011;11349;53.412;-1.328;2023-03-05T07:52:57;7.70;;;4.53;;
22363;SDS011;11349;53.412;-1.328;2023-03-05T07:55:23;7.68;;;3.70;;
22363;SDS011;11349;53.412;-1.328;2023-03-05T07:57:49;7.50;;;4.30;;
22363;SDS011;11349;53.412;-1.328;2023-03-05T08:00:15;10.25;;;4.55;;
22363;SDS011;11349;53.412;-1.328;2023-03-05T08:02:41;9.15;;;4.57;;
22363;SDS011;11349;53.412;-1.328;2023-03-05T08:05:07;7.80;;;3.90;;
22363;SDS011;11349;53.412;-1.328;2023-03-05T08:07:33;7.28;;;4.25;;
22363;SDS011;11349;53.412;-1.328;2023-03-05T08:09:58;6.85;;;3.97;;
22363;SDS011;11349;53.412;-1.328;2023-03-05T08:12:24;6.55;;;3.67;;
22363;SDS011;11349;53.412;-1.328;2023-03-05T08:14:50;6.60;;;4.07;;
22363;SDS011;11349;53.412;-1.328;2023-03-05T08:17:19;8.55;;;4.07;;
22363;SDS011;11349;53.412;-1.328;2023-03-05T08:19:44;10.20;;;4.10;;
22363;SDS011;11349;53.412;-1.328;2023-03-05T08:22:10;8.30;;;3.55;;
22363;SDS011;11349;53.412;-1.328;2023-03-05T08:24:36;7.65;;;3.92;;
22363;SDS011;11349;53.412;-1.328;2023-03-05T08:27:02;6.85;;;4.03;;
22363;SDS011;11349;53.412;-1.328;2023-03-05T08:29:27;8.48;;;4.20;;
22363;SDS011;11349;53.412;-1.328;2023-03-05T08:31:54;8.02;;;4.30;;
22363;SDS011;11349;53.412;-1.328;2023-03-05T08:34:20;6.20;;;4.20;;
22363;SDS011;11349;53.412;-1.328;2023-03-05T08:36:46;9.68;;;3.90;;
22363;SDS011;11349;53.412;-1.328;2023-03-05T08:39:12;9.57;;;4.28;;
22363;SDS011;11349;53.412;-1.328;2023-03-05T08:41:38;6.60;;;3.97;;
22363;SDS011;11349;53.412;-1.328;2023-03-05T08:44:04;9.30;;;4.15;;
22363;SDS011;11349;53.412;-1.328;2023-03-05T08:46:30;8.18;;;4.53;;
22363;SDS011;11349;53.412;-1.328;2023-03-05T08:48:56;6.40;;;3.70;;
22363;SDS011;11349;53.412;-1.328;2023-03-05T08:51:22;8.13;;;3.88;;
22363;SDS011;11349;53.412;-1.328;2023-03-05T08:53:50;5.18;;;2.28;;
22363;SDS011;11349;53.412;-1.328;2023-03-05T08:56:17;4.53;;;2.58;;
22363;SDS011;11349;53.412;-1.328;2023-03-05T08:58:43;3.22;;;1.55;;
22363;SDS011;11349;53.412;-1.328;2023-03-05T09:01:10;3.50;;;1.90;;
22363;SDS011;11349;53.412;-1.328;2023-03-05T09:03:37;4.30;;;2.10;;
22363;SDS011;11349;53.412;-1.328;2023-03-05T09:06:05;3.25;;;1.90;;
22363;SDS011;11349;53.412;-1.328;2023-03-05T09:08:32;3.05;;;1.70;;
22363;SDS011;11349;53.412;-1.328;2023-03-05T09:11:00;4.05;;;1.80;;
22363;SDS011;11349;53.412;-1.328;2023-03-05T09:13:30;3.78;;;1.52;;
22363;SDS011;11349;53.412;-1.328;2023-03-05T09:15:56;4.57;;;2.20;;
22363;SDS011;11349;53.412;-1.328;2023-03-05T09:18:24;5.13;;;1.60;;
22363;SDS011;11349;53.412;-1.328;2023-03-05T09:20:49;3.70;;;1.98;;
22363;SDS011;11349;53.412;-1.328;2023-03-05T09:23:15;5.07;;;1.98;;
22363;SDS011;11349;53.412;-1.328;2023-03-05T09:25:41;7.32;;;2.20;;
22363;SDS011;11349;53.412;-1.328;2023-03-05T09:28:07;3.25;;;1.75;;
22363;SDS011;11349;53.412;-1.328;2023-03-05T09:30:34;6.70;;;2.50;;
22363;SDS011;11349;53.412;-1.328;2023-03-05T09:33:00;3.33;;;1.70;;
22363;SDS011;11349;53.412;-1.328;2023-03-05T09:35:26;3.10;;;1.52;;
22363;SDS011;11349;53.412;-1.328;2023-03-05T09:37:52;3.85;;;1.90;;
22363;SDS011;11349;53.412;-1.328;2023-03-05T09:40:19;5.05;;;2.10;;
22363;SDS011;11349;53.412;-1.328;2023-03-05T09:43:09;3.22;;;2.10;;
22363;SDS011;11349;53.412;-1.328;2023-03-05T09:45:46;4.55;;;2.20;;
22363;SDS011;11349;53.412;-1.328;2023-03-05T09:48:31;4.25;;;2.20;;
22363;SDS011;11349;53.412;-1.328;2023-03-05T09:51:20;4.10;;;2.03;;
22363;SDS011;11349;53.412;-1.328;2023-03-05T09:54:12;5.93;;;2.33;;
22363;SDS011;11349;53.412;-1.328;2023-03-05T09:56:45;5.15;;;2.53;;
22363;SDS011;11349;53.412;-1.328;2023-03-05T10:02:54;6.93;;;2.95;;
22363;SDS011;11349;53.412;-1.328;2023-03-05T10:07:37;5.35;;;3.17;;
22363;SDS011;11349;53.412;-1.328;2023-03-05T10:10:15;6.03;;;3.03;;
22363;SDS011;11349;53.412;-1.328;2023-03-05T10:12:50;7.90;;;3.30;;
22363;SDS011;11349;53.412;-1.328;2023-03-05T10:15:30;4.75;;;3.00;;
22363;SDS011;11349;53.412;-1.328;2023-03-05T10:18:03;6.25;;;3.50;;
22363;SDS011;11349;53.412;-1.328;2023-03-05T10:21:20;7.05;;;3.78;;
22363;SDS011;11349;53.412;-1.328;2023-03-05T10:23:39;5.93;;;3.80;;
22363;SDS011;11349;53.412;-1.328;2023-03-05T10:29:05;9.95;;;3.95;;
22363;SDS011;11349;53.412;-1.328;2023-03-05T10:37:38;7.38;;;4.13;;
22363;SDS011;11349;53.412;-1.328;2023-03-05T10:45:49;7.90;;;4.40;;
22363;SDS011;11349;53.412;-1.328;2023-03-05T10:48:27;7.30;;;4.20;;
22363;SDS011;11349;53.412;-1.328;2023-03-05T10:51:11;6.10;;;4.45;;
22363;SDS011;11349;53.412;-1.328;2023-03-05T10:56:15;6.13;;;4.10;;
22363;SDS011;11349;53.412;-1.328;2023-03-05T10:58:47;6.93;;;4.07;;
22363;SDS011;11349;53.412;-1.328;2023-03-05T11:01:26;8.52;;;4.25;;
22363;SDS011;11349;53.412;-1.328;2023-03-05T11:09:01;9.20;;;4.55;;
22363;SDS011;11349;53.412;-1.328;2023-03-05T11:11:42;8.43;;;5.55;;
22363;SDS011;11349;53.412;-1.328;2023-03-05T11:14:23;7.15;;;4.80;;
22363;SDS011;11349;53.412;-1.328;2023-03-05T11:16:55;9.00;;;4.80;;
22363;SDS011;11349;53.412;-1.328;2023-03-05T11:19:33;6.18;;;4.32;;
22363;SDS011;11349;53.412;-1.328;2023-03-05T11:24:35;11.02;;;5.20;;
22363;SDS011;11349;53.412;-1.328;2023-03-05T11:27:01;8.35;;;5.38;;
22363;SDS011;11349;53.412;-1.328;2023-03-05T11:30:18;8.80;;;5.53;;
22363;SDS011;11349;53.412;-1.328;2023-03-05T11:32:44;9.50;;;6.15;;
22363;SDS011;11349;53.412;-1.328;2023-03-05T11:35:21;8.45;;;5.80;;
22363;SDS011;11349;53.412;-1.328;2023-03-05T11:38:04;8.73;;;5.72;;
22363;SDS011;11349;53.412;-1.328;2023-03-05T11:40:39;10.55;;;5.78;;
22363;SDS011;11349;53.412;-1.328;2023-03-05T11:43:04;7.82;;;5.38;;
22363;SDS011;11349;53.412;-1.328;2023-03-05T11:45:31;8.85;;;5.97;;
22363;SDS011;11349;53.412;-1.328;2023-03-05T11:48:00;9.98;;;6.25;;
22363;SDS011;11349;53.412;-1.328;2023-03-05T11:50:53;9.90;;;6.53;;
22363;SDS011;11349;53.412;-1.328;2023-03-05T11:53:26;8.55;;;5.70;;
22363;SDS011;11349;53.412;-1.328;2023-03-05T12:00:59;8.90;;;6.03;;
22363;SDS011;11349;53.412;-1.328;2023-03-05T12:03:37;9.50;;;6.30;;
22363;SDS011;11349;53.412;-1.328;2023-03-05T12:08:54;10.23;;;5.80;;
22363;SDS011;11349;53.412;-1.328;2023-03-05T12:11:26;10.77;;;6.07;;
22363;SDS011;11349;53.412;-1.328;2023-03-05T12:14:03;7.93;;;5.75;;
22363;SDS011;11349;53.412;-1.328;2023-03-05T12:17:06;7.40;;;5.15;;
22363;SDS011;11349;53.412;-1.328;2023-03-05T12:22:37;10.38;;;5.70;;
22363;SDS011;11349;53.412;-1.328;2023-03-05T12:27:56;11.90;;;6.60;;
22363;SDS011;11349;53.412;-1.328;2023-03-05T12:38:47;6.82;;;4.70;;
22363;SDS011;11349;53.412;-1.328;2023-03-05T12:46:37;7.68;;;4.85;;
22363;SDS011;11349;53.412;-1.328;2023-03-05T12:51:52;8.13;;;4.97;;
22363;SDS011;11349;53.412;-1.328;2023-03-05T12:57:18;12.95;;;5.28;;
22363;SDS011;11349;53.412;-1.328;2023-03-05T12:59:52;11.85;;;5.50;;
22363;SDS011;11349;53.412;-1.328;2023-03-05T13:02:20;8.48;;;5.32;;
22363;SDS011;11349;53.412;-1.328;2023-03-05T13:04:52;10.73;;;5.43;;
22363;SDS011;11349;53.412;-1.328;2023-03-05T13:07:24;11.32;;;5.20;;
22363;SDS011;11349;53.412;-1.328;2023-03-05T13:09:57;7.82;;;5.22;;
22363;SDS011;11349;53.412;-1.328;2023-03-05T13:12:24;9.57;;;5.22;;
22363;SDS011;11349;53.412;-1.328;2023-03-05T13:14:59;7.43;;;5.20;;
22363;SDS011;11349;53.412;-1.328;2023-03-05T13:17:34;10.75;;;5.30;;
22363;SDS011;11349;53.412;-1.328;2023-03-05T13:25:30;7.15;;;4.68;;
22363;SDS011;11349;53.412;-1.328;2023-03-05T13:28:15;7.90;;;5.13;;
22363;SDS011;11349;53.412;-1.328;2023-03-05T13:30:49;10.15;;;5.43;;
22363;SDS011;11349;53.412;-1.328;2023-03-05T13:33:30;8.32;;;4.78;;
22363;SDS011;11349;53.412;-1.328;2023-03-05T13:35:57;7.65;;;4.38;;
22363;SDS011;11349;53.412;-1.328;2023-03-05T13:38:39;5.93;;;3.85;;
22363;SDS011;11349;53.412;-1.328;2023-03-05T13:43:41;7.10;;;3.90;;
22363;SDS011;11349;53.412;-1.328;2023-03-05T13:46:08;6.75;;;3.83;;
22363;SDS011;11349;53.412;-1.328;2023-03-05T13:48:34;7.45;;;3.90;;
22363;SDS011;11349;53.412;-1.328;2023-03-05T13:50:59;7.22;;;4.20;;
22363;SDS011;11349;53.412;-1.328;2023-03-05T13:53:31;7.88;;;4.45;;
22363;SDS011;11349;53.412;-1.328;2023-03-05T14:01:29;7.25;;;4.63;;
22363;SDS011;11349;53.412;-1.328;2023-03-05T14:06:41;8.30;;;4.95;;
22363;SDS011;11349;53.412;-1.328;2023-03-05T14:09:42;5.93;;;4.03;;
22363;SDS011;11349;53.412;-1.328;2023-03-05T14:15:02;12.25;;;6.90;;
22363;SDS011;11349;53.412;-1.328;2023-03-05T14:22:42;9.63;;;6.82;;
22363;SDS011;11349;53.412;-1.328;2023-03-05T14:28:15;7.90;;;5.40;;
22363;SDS011;11349;53.412;-1.328;2023-03-05T14:30:49;9.10;;;5.30;;
22363;SDS011;11349;53.412;-1.328;2023-03-05T14:33:25;7.00;;;4.97;;
22363;SDS011;11349;53.412;-1.328;2023-03-05T14:35:56;10.57;;;6.95;;
22363;SDS011;11349;53.412;-1.328;2023-03-05T14:38:24;7.75;;;5.10;;
22363;SDS011;11349;53.412;-1.328;2023-03-05T14:40:54;6.53;;;4.85;;
22363;SDS011;11349;53.412;-1.328;2023-03-05T14:43:20;6.80;;;4.60;;
22363;SDS011;11349;53.412;-1.328;2023-03-05T14:45:46;10.10;;;4.97;;
22363;SDS011;11349;53.412;-1.328;2023-03-05T14:48:15;8.75;;;4.88;;
22363;SDS011;11349;53.412;-1.328;2023-03-05T14:50:49;8.18;;;4.88;;
22363;SDS011;11349;53.412;-1.328;2023-03-05T14:53:21;7.93;;;4.85;;
22363;SDS011;11349;53.412;-1.328;2023-03-05T14:55:51;10.88;;;5.18;;
22363;SDS011;11349;53.412;-1.328;2023-03-05T14:58:28;8.88;;;5.38;;
22363;SDS011;11349;53.412;-1.328;2023-03-05T15:00:59;9.20;;;5.38;;
22363;SDS011;11349;53.412;-1.328;2023-03-05T15:03:25;8.00;;;5.03;;
22363;SDS011;11349;53.412;-1.328;2023-03-05T15:05:53;6.72;;;4.65;;
22363;SDS011;11349;53.412;-1.328;2023-03-05T15:08:22;6.75;;;3.85;;
22363;SDS011;11349;53.412;-1.328;2023-03-05T15:10:51;8.20;;;3.70;;
22363;SDS011;11349;53.412;-1.328;2023-03-05T15:13:18;6.63;;;3.97;;
22363;SDS011;11349;53.412;-1.328;2023-03-05T15:15:45;5.80;;;3.83;;
22363;SDS011;11349;53.412;-1.328;2023-03-05T15:18:13;6.45;;;3.85;;
22363;SDS011;11349;53.412;-1.328;2023-03-05T15:20:41;6.13;;;4.03;;
22363;SDS011;11349;53.412;-1.328;2023-03-05T15:23:07;5.85;;;3.38;;
22363;SDS011;11349;53.412;-1.328;2023-03-05T15:25:33;5.45;;;3.53;;
22363;SDS011;11349;53.412;-1.328;2023-03-05T15:27:59;7.25;;;3.33;;
22363;SDS011;11349;53.412;-1.328;2023-03-05T15:30:31;8.48;;;3.20;;
22363;SDS011;11349;53.412;-1.328;2023-03-05T15:33:00;5.38;;;3.00;;
22363;SDS011;11349;53.412;-1.328;2023-03-05T15:35:29;6.55;;;3.10;;
22363;SDS011;11349;53.412;-1.328;2023-03-05T15:37:54;6.10;;;3.13;;
22363;SDS011;11349;53.412;-1.328;2023-03-05T15:40:22;5.28;;;2.80;;
22363;SDS011;11349;53.412;-1.328;2023-03-05T15:42:49;7.57;;;3.50;;
22363;SDS011;11349;53.412;-1.328;2023-03-05T15:45:15;4.28;;;2.70;;
22363;SDS011;11349;53.412;-1.328;2023-03-05T15:47:40;4.70;;;2.60;;
22363;SDS011;11349;53.412;-1.328;2023-03-05T15:50:07;8.63;;;5.13;;
22363;SDS011;11349;53.412;-1.328;2023-03-05T15:52:33;4.75;;;2.80;;
22363;SDS011;11349;53.412;-1.328;2023-03-05T15:54:59;4.70;;;2.88;;
22363;SDS011;11349;53.412;-1.328;2023-03-05T15:57:26;6.00;;;2.83;;
22363;SDS011;11349;53.412;-1.328;2023-03-05T15:59:52;4.88;;;2.75;;
22363;SDS011;11349;53.412;-1.328;2023-03-05T16:02:19;5.53;;;3.22;;
22363;SDS011;11349;53.412;-1.328;2023-03-05T16:04:45;5.10;;;3.08;;
22363;SDS011;11349;53.412;-1.328;2023-03-05T16:07:12;5.13;;;2.95;;
22363;SDS011;11349;53.412;-1.328;2023-03-05T16:09:43;4.82;;;2.63;;